Time;durP1;ratioP1;P1;durP2;ratioP2;P2;SDS_P1;SDS_P2;PMS_P1;PMS_P2;Temp;Humidity;BMP_temperature;BMP_pressure;BME280_temperature;BME280_humidity;BME280_pressure;Samples;Min_cycle;Max_cycle;Signal;HPM_P1;HPM_P2
2022/12/06 00:02:01;;;;;;;0.00;0.00;;;4.10;99.90;;;;;;5052525;28;20264;-65
2022/12/06 00:04:26;;;;;;;0.05;0.05;;;4.10;99.90;;;;;;5052437;28;20637;-65
2022/12/06 00:06:53;;;;;;;0.00;0.00;;;4.10;99.90;;;;;;5052561;28;20260;-65
2022/12/06 00:09:27;;;;;;;0.00;0.00;;;4.10;99.90;;;;;;5052387;28;20204;-65
2022/12/06 00:11:54;;;;;;;0.00;0.00;;;4.10;99.90;;;;;;5052033;28;20225;-65
2022/12/06 00:14:20;;;;;;;0.00;0.00;;;4.10;99.90;;;;;;5051211;28;20205;-66
2022/12/06 00:16:46;;;;;;;3.08;0.13;;;4.20;99.90;;;;;;5051765;28;20220;-65
2022/12/06 00:19:14;;;;;;;0.00;0.00;;;4.20;99.90;;;;;;5052846;28;20178;-65
2022/12/06 00:21:40;;;;;;;0.00;0.00;;;4.10;99.90;;;;;;5051301;28;20193;-65
2022/12/06 00:24:09;;;;;;;0.22;0.22;;;4.10;99.90;;;;;;5051589;28;20190;-65
2022/12/06 00:26:37;;;;;;;0.00;0.00;;;4.10;99.90;;;;;;5049387;28;20182;-65
2022/12/06 00:29:02;;;;;;;0.03;0.03;;;4.10;99.90;;;;;;5048418;28;20189;-65
2022/12/06 00:31:29;;;;;;;0.00;0.00;;;4.10;99.90;;;;;;5051261;28;20637;-65
2022/12/06 00:33:55;;;;;;;0.00;0.00;;;4.00;99.90;;;;;;5050517;28;20243;-66
2022/12/06 00:36:26;;;;;;;0.38;0.38;;;4.10;99.90;;;;;;5051425;28;20585;-65
2022/12/06 00:38:51;;;;;;;0.00;0.00;;;4.10;99.90;;;;;;5051457;28;20214;-65
2022/12/06 00:41:20;;;;;;;0.03;0.03;;;4.10;99.90;;;;;;5050719;28;20177;-65
2022/12/06 00:43:46;;;;;;;0.00;0.00;;;4.10;99.90;;;;;;5051136;28;20195;-66
2022/12/06 00:46:24;;;;;;;0.00;0.00;;;4.20;99.90;;;;;;5050840;28;20204;-65
2022/12/06 00:48:51;;;;;;;0.00;0.00;;;4.10;99.90;;;;;;5042051;28;20213;-66
2022/12/06 00:51:19;;;;;;;0.00;0.00;;;4.20;99.90;;;;;;5051416;28;20279;-65
2022/12/06 00:53:45;;;;;;;0.00;0.00;;;4.20;99.90;;;;;;5050712;28;20252;-65
2022/12/06 00:56:11;;;;;;;0.00;0.00;;;4.20;99.90;;;;;;5049747;28;20583;-65
2022/12/06 00:58:36;;;;;;;0.00;0.00;;;4.20;99.90;;;;;;5049930;28;20173;-66
2022/12/06 01:01:20;;;;;;;0.00;0.00;;;4.30;99.90;;;;;;5050775;28;20193;-65
2022/12/06 01:03:52;;;;;;;0.00;0.00;;;4.30;99.90;;;;;;5050114;28;20170;-65
2022/12/06 01:06:21;;;;;;;0.10;0.10;;;4.30;99.90;;;;;;5050704;28;20174;-65
2022/12/06 01:08:47;;;;;;;0.00;0.00;;;4.30;99.90;;;;;;5050742;28;20192;-65
2022/12/06 01:11:15;;;;;;;0.10;0.10;;;4.30;99.90;;;;;;5049639;28;20217;-65
2022/12/06 01:13:41;;;;;;;0.00;0.00;;;4.40;99.90;;;;;;5046938;28;20185;-66
2022/12/06 01:16:16;;;;;;;0.00;0.00;;;4.30;99.90;;;;;;5050292;28;20758;-66
2022/12/06 01:18:43;;;;;;;0.22;0.08;;;4.40;99.90;;;;;;5049782;28;20181;-65
2022/12/06 01:21:11;;;;;;;0.10;0.10;;;4.40;99.90;;;;;;5049457;28;20255;-66
2022/12/06 01:23:37;;;;;;;0.00;0.00;;;4.40;99.90;;;;;;5050001;28;20177;-65
2022/12/06 01:26:04;;;;;;;2.58;1.60;;;4.30;99.90;;;;;;5050014;28;20185;-65
2022/12/06 01:28:30;;;;;;;0.20;0.20;;;4.30;99.90;;;;;;5054660;28;20173;-65
2022/12/06 01:30:56;;;;;;;0.10;0.10;;;4.30;99.90;;;;;;5054414;28;20188;-65
2022/12/06 01:33:21;;;;;;;0.00;0.00;;;4.30;99.90;;;;;;5054280;28;20192;-65
2022/12/06 01:35:47;;;;;;;0.00;0.00;;;4.30;99.90;;;;;;5054079;28;20212;-65
2022/12/06 01:38:12;;;;;;;0.00;0.00;;;4.30;99.90;;;;;;5054723;28;20663;-66
2022/12/06 01:40:44;;;;;;;0.00;0.00;;;4.30;99.90;;;;;;5055058;28;20181;-65
2022/12/06 01:43:35;;;;;;;0.10;0.10;;;4.30;99.90;;;;;;5054717;28;20208;-65
2022/12/06 01:46:09;;;;;;;0.00;0.00;;;4.30;99.90;;;;;;5042657;28;20181;-65
2022/12/06 01:48:35;;;;;;;0.00;0.00;;;4.30;99.90;;;;;;5054757;28;20260;-65
2022/12/06 01:51:02;;;;;;;0.00;0.00;;;4.30;99.90;;;;;;5054442;28;20213;-65
2022/12/06 01:53:28;;;;;;;0.00;0.00;;;4.30;99.90;;;;;;5054666;28;20651;-65
2022/12/06 01:55:54;;;;;;;0.00;0.00;;;4.30;99.90;;;;;;5050449;28;20237;-65
2022/12/06 01:58:23;;;;;;;0.10;0.10;;;4.30;99.90;;;;;;5034830;28;20178;-65
2022/12/06 02:00:49;;;;;;;0.00;0.00;;;4.40;99.90;;;;;;5033655;28;20265;-65
2022/12/06 02:03:20;;;;;;;0.38;0.38;;;4.30;99.90;;;;;;5034751;28;20304;-65
2022/12/06 02:05:47;;;;;;;0.10;0.10;;;4.30;99.90;;;;;;5034839;28;20170;-65
2022/12/06 02:08:15;;;;;;;0.20;0.20;;;4.30;99.90;;;;;;5045701;28;20541;-65
2022/12/06 02:10:40;;;;;;;0.00;0.00;;;4.30;99.90;;;;;;5054396;28;20303;-65
2022/12/06 02:13:06;;;;;;;0.20;0.20;;;4.30;99.90;;;;;;5054529;28;20209;-65
2022/12/06 02:15:46;;;;;;;0.00;0.00;;;4.30;99.90;;;;;;5054570;28;20672;-65
2022/12/06 02:18:18;;;;;;;0.20;0.20;;;4.20;99.90;;;;;;5054391;28;20541;-65
2022/12/06 02:20:49;;;;;;;0.00;0.00;;;4.20;99.90;;;;;;5054393;28;20177;-65
2022/12/06 02:23:45;;;;;;;0.00;0.00;;;4.20;99.90;;;;;;5054537;28;20245;-65
2022/12/06 02:26:16;;;;;;;0.00;0.00;;;4.30;99.90;;;;;;5052945;28;20288;-65
2022/12/06 02:28:57;;;;;;;0.00;0.00;;;4.20;99.90;;;;;;5054307;28;20189;-65
2022/12/06 02:31:47;;;;;;;0.10;0.10;;;4.20;99.90;;;;;;5054266;28;20535;-65
2022/12/06 02:34:21;;;;;;;0.00;0.00;;;4.20;99.90;;;;;;5048275;28;20178;-65
2022/12/06 02:37:19;;;;;;;0.00;0.00;;;4.20;99.90;;;;;;5033408;28;20181;-66
2022/12/06 02:39:56;;;;;;;0.00;0.00;;;4.20;99.90;;;;;;5050540;28;20177;-66
2022/12/06 02:42:25;;;;;;;0.10;0.10;;;4.20;99.90;;;;;;5042990;28;20203;-65
2022/12/06 02:45:00;;;;;;;0.00;0.00;;;4.20;99.90;;;;;;5052287;28;20209;-65
2022/12/06 02:47:31;;;;;;;0.00;0.00;;;4.20;99.90;;;;;;5052658;28;20180;-65
2022/12/06 02:49:58;;;;;;;0.00;0.00;;;4.20;99.90;;;;;;5053385;28;20177;-65
2022/12/06 02:52:26;;;;;;;0.22;0.22;;;4.20;99.90;;;;;;5033793;28;20182;-65
2022/12/06 02:54:57;;;;;;;0.00;0.00;;;4.20;99.90;;;;;;5050150;28;20201;-65
2022/12/06 02:57:40;;;;;;;0.13;0.10;;;4.20;99.90;;;;;;5047394;28;20189;-66
2022/12/06 03:00:42;;;;;;;0.00;0.00;;;4.20;99.90;;;;;;5053842;28;20178;-65
2022/12/06 03:03:29;;;;;;;0.00;0.00;;;4.20;99.90;;;;;;5007673;28;20178;-65
2022/12/06 03:06:00;;;;;;;0.68;0.68;;;4.20;99.90;;;;;;5032547;28;20709;-65
2022/12/06 03:08:46;;;;;;;0.35;0.35;;;4.20;99.90;;;;;;5033637;28;20170;-65
2022/12/06 03:11:12;;;;;;;0.15;0.15;;;4.20;99.90;;;;;;5025882;28;20258;-65
2022/12/06 03:13:55;;;;;;;0.00;0.00;;;4.20;99.90;;;;;;5033553;28;20181;-65
2022/12/06 03:16:47;;;;;;;0.00;0.00;;;4.20;99.90;;;;;;5048768;28;20208;-65
2022/12/06 03:19:22;;;;;;;0.00;0.00;;;4.20;99.90;;;;;;5051747;28;20196;-65
2022/12/06 03:21:54;;;;;;;0.00;0.00;;;4.20;99.90;;;;;;5052521;28;20640;-65
2022/12/06 03:24:23;;;;;;;0.63;0.63;;;4.20;99.90;;;;;;5052752;28;20216;-65
2022/12/06 03:26:50;;;;;;;0.00;0.00;;;4.20;99.90;;;;;;5052411;28;20239;-65
2022/12/06 03:29:19;;;;;;;0.00;0.00;;;4.20;99.90;;;;;;5053006;28;20193;-65
2022/12/06 03:31:46;;;;;;;0.00;0.00;;;4.20;99.90;;;;;;5052732;28;20513;-65
2022/12/06 03:34:24;;;;;;;0.00;0.00;;;4.20;99.90;;;;;;5051347;28;20188;-65
2022/12/06 03:36:50;;;;;;;0.00;0.00;;;4.20;99.90;;;;;;5055774;28;20185;-65
2022/12/06 03:39:30;;;;;;;0.00;0.00;;;4.20;99.90;;;;;;5052843;28;20197;-65
2022/12/06 03:41:57;;;;;;;0.00;0.00;;;4.20;99.90;;;;;;5052977;28;20184;-65
2022/12/06 03:44:24;;;;;;;0.00;0.00;;;4.20;99.90;;;;;;5052971;28;20182;-65
2022/12/06 03:46:55;;;;;;;0.00;0.00;;;4.20;99.90;;;;;;5052766;28;20207;-65
2022/12/06 03:49:27;;;;;;;0.03;0.03;;;4.20;99.90;;;;;;5050887;28;20264;-65
2022/12/06 03:51:53;;;;;;;0.00;0.00;;;4.20;99.90;;;;;;5051828;28;20189;-65
2022/12/06 03:54:19;;;;;;;0.10;0.10;;;4.30;99.90;;;;;;5052443;28;20196;-65
2022/12/06 03:56:45;;;;;;;0.00;0.00;;;4.30;99.90;;;;;;5048720;28;20221;-65
2022/12/06 03:59:10;;;;;;;0.00;0.00;;;4.30;99.90;;;;;;5051372;28;20231;-65
2022/12/06 04:01:37;;;;;;;0.43;0.05;;;4.30;99.90;;;;;;5052616;28;20173;-65
2022/12/06 04:04:03;;;;;;;0.28;0.28;;;4.30;99.90;;;;;;5052258;28;20204;-65
2022/12/06 04:06:28;;;;;;;0.10;0.10;;;4.30;99.90;;;;;;5052121;28;20311;-64
2022/12/06 04:09:51;;;;;;;0.00;0.00;;;4.30;99.90;;;;;;5051822;28;20303;-65
2022/12/06 04:11:40;;;;;;;0.00;0.00;;;4.20;99.90;;;;;;5051194;28;20327;-66
2022/12/06 04:14:05;;;;;;;0.00;0.00;;;4.20;99.90;;;;;;5052552;28;20208;-66
2022/12/06 04:19:15;;;;;;;0.15;0.05;;;4.20;99.90;;;;;;5051428;28;20189;-67
2022/12/06 04:24:25;;;;;;;0.00;0.00;;;4.20;99.90;;;;;;5052722;28;20184;-65
2022/12/06 04:26:50;;;;;;;0.22;0.22;;;4.20;99.90;;;;;;5050215;28;20186;-65
2022/12/06 04:40:12;;;;;;;0.00;0.00;;;4.10;99.90;;;;;;5051686;28;20188;-66
2022/12/06 04:45:35;;;;;;;0.10;0.10;;;4.10;99.90;;;;;;5028573;28;20207;-66
2022/12/06 04:48:00;;;;;;;0.00;0.00;;;4.20;99.90;;;;;;5051515;28;20256;-65
2022/12/06 04:50:26;;;;;;;0.00;0.00;;;4.20;99.90;;;;;;5052088;28;20176;-66
2022/12/06 04:52:51;;;;;;;0.00;0.00;;;4.20;99.90;;;;;;5051612;28;20188;-65
2022/12/06 04:55:17;;;;;;;0.08;0.08;;;4.20;99.90;;;;;;5051400;28;20213;-68
2022/12/06 04:57:42;;;;;;;0.40;0.40;;;4.20;99.90;;;;;;5047550;28;20177;-68
2022/12/06 05:00:08;;;;;;;0.00;0.00;;;4.20;99.90;;;;;;5051143;28;20197;-68
2022/12/06 05:02:34;;;;;;;0.00;0.00;;;4.30;99.90;;;;;;5051991;28;20564;-68
2022/12/06 05:04:59;;;;;;;0.00;0.00;;;4.30;99.90;;;;;;5050543;28;20187;-68
2022/12/06 05:07:25;;;;;;;0.35;0.35;;;4.30;99.90;;;;;;5051934;28;20188;-67
2022/12/06 05:09:50;;;;;;;0.20;0.20;;;4.30;99.90;;;;;;5051914;28;20234;-67
2022/12/06 05:12:16;;;;;;;0.00;0.00;;;4.30;99.90;;;;;;5050383;28;20272;-67
2022/12/06 05:14:41;;;;;;;0.00;0.00;;;4.30;99.90;;;;;;5051634;28;20362;-68
2022/12/06 05:17:07;;;;;;;0.00;0.00;;;4.30;99.90;;;;;;5051875;28;20169;-67
2022/12/06 05:19:32;;;;;;;0.28;0.28;;;4.30;99.90;;;;;;5051899;28;20173;-68
2022/12/06 05:21:58;;;;;;;0.05;0.05;;;4.30;99.90;;;;;;5051751;28;20177;-68
2022/12/06 05:24:23;;;;;;;0.17;0.17;;;4.30;99.90;;;;;;5050541;28;20243;-68
2022/12/06 05:26:49;;;;;;;0.20;0.20;;;4.30;99.90;;;;;;5051741;28;20177;-68
2022/12/06 05:29:15;;;;;;;0.30;0.30;;;4.20;99.90;;;;;;5050590;28;20520;-68
2022/12/06 05:31:40;;;;;;;0.00;0.00;;;4.20;99.90;;;;;;5051522;28;20682;-68
2022/12/06 05:34:06;;;;;;;0.00;0.00;;;4.20;99.90;;;;;;5050267;28;20188;-68
2022/12/06 05:36:31;;;;;;;0.20;0.20;;;4.20;99.90;;;;;;5051733;28;20215;-68
2022/12/06 05:38:57;;;;;;;0.03;0.03;;;4.20;99.90;;;;;;5051601;28;20180;-68
2022/12/06 05:41:23;;;;;;;0.03;0.03;;;4.20;99.90;;;;;;5051624;28;20242;-68
2022/12/06 05:43:48;;;;;;;0.40;0.35;;;4.20;99.90;;;;;;5051603;28;20694;-68
2022/12/06 05:46:14;;;;;;;0.00;0.00;;;4.20;99.90;;;;;;5051608;28;20162;-68
2022/12/06 05:48:39;;;;;;;0.00;0.00;;;4.20;99.90;;;;;;5051549;28;20644;-68
2022/12/06 05:51:05;;;;;;;0.10;0.10;;;4.20;99.90;;;;;;5051499;28;20176;-67
2022/12/06 05:53:31;;;;;;;0.00;0.00;;;4.20;99.90;;;;;;5051553;28;20197;-68
2022/12/06 05:56:06;;;;;;;0.00;0.00;;;4.20;99.90;;;;;;5047093;28;20214;-68
2022/12/06 05:58:32;;;;;;;0.00;0.00;;;4.20;99.90;;;;;;5031640;28;20186;-68
2022/12/06 06:00:57;;;;;;;0.00;0.00;;;4.20;99.90;;;;;;5031555;28;20186;-68
2022/12/06 06:03:23;;;;;;;0.00;0.00;;;4.20;99.90;;;;;;5040028;28;20177;-68
2022/12/06 06:05:50;;;;;;;0.00;0.00;;;4.20;99.90;;;;;;5051205;28;20251;-68
2022/12/06 06:08:18;;;;;;;0.00;0.00;;;4.20;99.90;;;;;;5051244;28;20183;-68
2022/12/06 06:10:44;;;;;;;0.30;0.30;;;4.20;99.90;;;;;;5050928;28;20247;-68
2022/12/06 06:13:10;;;;;;;0.00;0.00;;;4.20;99.90;;;;;;5052917;28;20170;-68
2022/12/06 06:15:36;;;;;;;0.00;0.00;;;4.10;99.90;;;;;;5054745;28;20624;-68
2022/12/06 06:18:01;;;;;;;0.00;0.00;;;4.20;99.90;;;;;;5054785;28;20231;-68
2022/12/06 06:20:27;;;;;;;0.08;0.08;;;4.30;99.90;;;;;;5054807;28;20177;-68
2022/12/06 06:22:53;;;;;;;0.08;0.08;;;4.20;99.90;;;;;;5054671;28;20170;-68
2022/12/06 06:25:18;;;;;;;0.43;0.43;;;4.20;99.90;;;;;;5054726;28;20235;-67
2022/12/06 06:27:44;;;;;;;0.00;0.00;;;4.20;99.90;;;;;;5054517;28;20170;-68
2022/12/06 06:30:11;;;;;;;0.00;0.00;;;4.20;99.90;;;;;;5054580;28;20583;-68
2022/12/06 06:32:37;;;;;;;0.00;0.00;;;4.20;99.90;;;;;;5054516;28;20540;-68
2022/12/06 06:35:03;;;;;;;0.22;0.22;;;4.20;99.90;;;;;;5054376;28;20217;-68
2022/12/06 06:37:29;;;;;;;0.00;0.00;;;4.30;99.90;;;;;;5054483;28;20178;-68
2022/12/06 06:39:55;;;;;;;0.40;0.38;;;4.20;99.90;;;;;;5054322;28;20189;-68
2022/12/06 06:42:20;;;;;;;0.10;0.10;;;4.20;99.90;;;;;;5054444;28;20169;-68
2022/12/06 06:44:46;;;;;;;0.08;0.08;;;4.30;99.90;;;;;;5054207;28;20200;-68
2022/12/06 06:47:11;;;;;;;0.10;0.10;;;4.30;99.90;;;;;;5054436;28;20197;-68
2022/12/06 06:49:37;;;;;;;0.00;0.00;;;4.30;99.90;;;;;;5054383;28;20201;-68
2022/12/06 06:52:03;;;;;;;0.10;0.10;;;4.30;99.90;;;;;;5054110;28;20558;-67
2022/12/06 06:54:28;;;;;;;0.15;0.15;;;4.30;99.90;;;;;;5054236;28;20186;-68
2022/12/06 06:56:55;;;;;;;0.10;0.10;;;4.30;99.90;;;;;;5042462;28;20196;-68
2022/12/06 06:59:21;;;;;;;0.00;0.00;;;4.30;99.90;;;;;;5034251;28;20577;-68
2022/12/06 07:01:47;;;;;;;0.00;0.00;;;4.30;99.90;;;;;;5034209;28;20178;-68
2022/12/06 07:04:12;;;;;;;0.15;0.15;;;4.30;99.90;;;;;;5049533;28;20227;-68
2022/12/06 07:06:38;;;;;;;0.20;0.20;;;4.30;99.90;;;;;;5054067;28;20532;-68
2022/12/06 07:09:03;;;;;;;0.20;0.20;;;4.30;99.90;;;;;;5053797;28;20632;-67
2022/12/06 07:11:29;;;;;;;0.00;0.00;;;4.30;99.90;;;;;;5053772;28;20221;-67
2022/12/06 07:13:54;;;;;;;0.05;0.05;;;4.30;99.90;;;;;;5053936;28;20181;-67
2022/12/06 07:16:20;;;;;;;0.20;0.20;;;4.30;99.90;;;;;;5053750;28;20209;-67
2022/12/06 07:18:46;;;;;;;0.00;0.00;;;4.30;99.90;;;;;;5053669;28;20199;-68
2022/12/06 07:21:14;;;;;;;0.03;0.03;;;4.30;99.90;;;;;;5053732;28;20186;-67
2022/12/06 07:23:41;;;;;;;0.05;0.05;;;4.30;99.90;;;;;;5051632;28;20174;-68
2022/12/06 07:26:13;;;;;;;0.10;0.10;;;4.20;99.90;;;;;;5053381;28;20255;-68
2022/12/06 07:28:41;;;;;;;0.10;0.10;;;4.20;99.90;;;;;;5053600;28;20177;-68
2022/12/06 07:31:21;;;;;;;0.30;0.30;;;4.20;99.90;;;;;;5053733;28;20182;-68
2022/12/06 07:33:47;;;;;;;0.00;0.00;;;4.10;99.90;;;;;;5053431;28;20177;-68
2022/12/06 07:36:14;;;;;;;0.00;0.00;;;4.20;99.90;;;;;;5053361;28;20213;-68
2022/12/06 07:38:41;;;;;;;0.00;0.00;;;4.10;99.90;;;;;;5053436;28;20178;-68
2022/12/06 07:46:40;;;;;;;0.00;0.00;;;4.10;99.90;;;;;;5053506;28;20185;-68
2022/12/06 07:49:07;;;;;;;0.13;0.13;;;4.10;99.90;;;;;;5053021;28;20653;-68
2022/12/06 07:51:32;;;;;;;0.00;0.00;;;4.00;99.90;;;;;;5053208;28;20170;-68
2022/12/06 07:53:58;;;;;;;0.00;0.00;;;4.10;99.90;;;;;;5053012;28;20184;-68
2022/12/06 07:56:24;;;;;;;0.00;0.00;;;4.10;99.90;;;;;;5045313;28;20218;-68
2022/12/06 07:58:50;;;;;;;0.15;0.10;;;4.10;99.90;;;;;;5032993;28;20178;-68
2022/12/06 08:01:15;;;;;;;0.00;0.00;;;4.10;99.90;;;;;;5033159;28;20598;-68
2022/12/06 08:03:41;;;;;;;0.00;0.00;;;4.10;99.90;;;;;;5043815;28;20186;-68
2022/12/06 08:06:07;;;;;;;0.00;0.00;;;4.10;99.90;;;;;;5052990;28;20640;-68
2022/12/06 08:08:33;;;;;;;0.00;0.00;;;4.10;99.90;;;;;;5052825;28;20235;-68
2022/12/06 08:11:00;;;;;;;0.00;0.00;;;4.10;99.90;;;;;;5052565;28;20248;-68
2022/12/06 08:13:26;;;;;;;0.20;0.20;;;4.10;99.90;;;;;;5052790;28;20272;-68
2022/12/06 08:15:51;;;;;;;0.00;0.00;;;4.10;99.90;;;;;;5052506;28;20684;-68
2022/12/06 08:18:17;;;;;;;3.30;0.52;;;4.10;99.90;;;;;;5051464;28;20239;-68
2022/12/06 08:20:42;;;;;;;0.00;0.00;;;4.10;99.90;;;;;;5052563;28;20173;-68
2022/12/06 08:23:08;;;;;;;0.00;0.00;;;4.20;99.90;;;;;;5052571;28;20235;-68
2022/12/06 08:25:34;;;;;;;0.00;0.00;;;4.20;99.90;;;;;;5052664;28;20189;-68
2022/12/06 08:27:59;;;;;;;0.15;0.15;;;4.20;99.90;;;;;;5052638;28;20190;-67
2022/12/06 08:30:25;;;;;;;0.00;0.00;;;4.30;99.90;;;;;;5052568;28;20181;-68
2022/12/06 08:32:50;;;;;;;0.00;0.00;;;4.30;99.90;;;;;;5052410;28;20264;-68
2022/12/06 08:35:16;;;;;;;0.05;0.03;;;4.30;99.90;;;;;;5052087;28;20676;-68
2022/12/06 08:37:41;;;;;;;0.00;0.00;;;4.30;99.90;;;;;;5052283;28;20185;-69
2022/12/06 08:40:07;;;;;;;0.00;0.00;;;4.20;99.90;;;;;;5052503;28;20172;-68
2022/12/06 08:42:33;;;;;;;0.00;0.00;;;4.30;99.90;;;;;;5052304;28;20174;-68
2022/12/06 08:44:58;;;;;;;0.03;0.03;;;4.30;99.90;;;;;;5052279;28;20671;-68
2022/12/06 08:47:24;;;;;;;0.00;0.00;;;4.30;99.90;;;;;;5052420;28;20668;-68
2022/12/06 08:49:50;;;;;;;0.25;0.25;;;4.40;99.90;;;;;;5052139;28;20671;-68
2022/12/06 08:52:16;;;;;;;0.00;0.00;;;4.40;99.90;;;;;;5052226;28;20186;-68
2022/12/06 08:54:41;;;;;;;0.00;0.00;;;4.40;99.90;;;;;;5052060;28;20201;-68
2022/12/06 08:57:07;;;;;;;0.00;0.00;;;4.30;99.90;;;;;;5038677;28;20235;-68
2022/12/06 08:59:33;;;;;;;0.00;0.00;;;4.40;99.90;;;;;;5032269;28;20192;-68
2022/12/06 09:01:58;;;;;;;0.00;0.00;;;4.30;99.90;;;;;;5032082;28;20532;-68
2022/12/06 09:04:24;;;;;;;0.20;0.20;;;4.40;99.90;;;;;;5048942;28;20181;-68
2022/12/06 09:06:50;;;;;;;0.00;0.00;;;4.40;99.90;;;;;;5052012;28;20216;-68
2022/12/06 09:09:17;;;;;;;0.00;0.00;;;4.40;99.90;;;;;;5052065;28;20260;-68
2022/12/06 09:11:44;;;;;;;0.00;0.00;;;4.50;99.90;;;;;;5051706;28;20225;-68
2022/12/06 09:14:15;;;;;;;0.00;0.00;;;4.50;99.90;;;;;;5051977;28;20633;-68
2022/12/06 09:16:42;;;;;;;0.00;0.00;;;4.40;99.90;;;;;;5051928;28;20282;-68
2022/12/06 09:19:11;;;;;;;0.00;0.00;;;4.50;99.90;;;;;;5052072;28;20181;-68
2022/12/06 09:21:41;;;;;;;0.10;0.10;;;4.40;99.90;;;;;;5051941;28;20207;-68
2022/12/06 09:24:12;;;;;;;0.00;0.00;;;4.50;99.90;;;;;;5051884;28;20176;-68
2022/12/06 09:26:38;;;;;;;0.00;0.00;;;4.40;99.90;;;;;;5051919;28;20170;-68
2022/12/06 09:29:04;;;;;;;0.05;0.05;;;4.40;99.90;;;;;;5051677;28;20295;-68
2022/12/06 09:31:29;;;;;;;0.00;0.00;;;4.40;99.90;;;;;;5051847;28;20251;-68
2022/12/06 09:33:55;;;;;;;0.00;0.00;;;4.50;99.90;;;;;;5051774;28;20170;-68
2022/12/06 09:36:26;;;;;;;0.10;0.10;;;4.50;99.90;;;;;;5051758;28;20221;-68
2022/12/06 09:38:58;;;;;;;0.00;0.00;;;4.50;99.90;;;;;;5051664;28;20174;-69
2022/12/06 09:41:43;;;;;;;0.00;0.00;;;4.50;99.90;;;;;;5051048;28;20668;-68
2022/12/06 09:44:19;;;;;;;0.00;0.00;;;4.50;99.90;;;;;;5050832;28;20197;-62
2022/12/06 09:47:22;;;;;;;0.00;0.00;;;4.40;99.90;;;;;;5050786;28;20181;-66
2022/12/06 09:50:01;;;;;;;0.20;0.20;;;4.50;99.90;;;;;;5054601;28;20181;-67
2022/12/06 09:52:45;;;;;;;0.13;0.13;;;4.50;99.90;;;;;;5040006;28;20234;-67
2022/12/06 09:55:29;;;;;;;0.00;0.00;;;4.50;99.90;;;;;;5054777;28;20484;-65
2022/12/06 09:58:22;;;;;;;0.00;0.00;;;4.50;99.90;;;;;;5055036;28;20213;-66
2022/12/06 10:00:57;;;;;;;0.00;0.00;;;4.50;99.90;;;;;;5055209;28;20192;-63
2022/12/06 10:03:25;;;;;;;0.00;0.00;;;4.50;99.90;;;;;;5055134;28;20662;-65
2022/12/06 10:06:01;;;;;;;0.00;0.00;;;4.50;99.90;;;;;;5055120;28;20297;-63
2022/12/06 10:08:52;;;;;;;0.17;0.17;;;4.40;99.90;;;;;;5055313;28;20203;-66
2022/12/06 10:11:46;;;;;;;0.00;0.00;;;4.50;99.90;;;;;;5054892;28;20218;-64
2022/12/06 10:14:45;;;;;;;0.00;0.00;;;4.40;99.90;;;;;;5055109;28;20169;-65
2022/12/06 10:17:19;;;;;;;0.00;0.00;;;4.50;99.90;;;;;;5055024;28;20189;-64
2022/12/06 10:19:44;;;;;;;0.00;0.00;;;4.50;99.90;;;;;;5054783;28;20770;-66
2022/12/06 10:22:22;;;;;;;0.00;0.00;;;4.60;99.90;;;;;;5054968;28;20212;-65
2022/12/06 10:25:14;;;;;;;0.00;0.00;;;4.60;99.90;;;;;;5053975;28;20181;-67
2022/12/06 10:28:18;;;;;;;0.10;0.10;;;4.70;99.90;;;;;;5054424;28;20308;-67
2022/12/06 10:30:52;;;;;;;0.00;0.00;;;4.70;99.90;;;;;;5041495;28;20180;-67
2022/12/06 10:33:55;;;;;;;0.13;0.13;;;4.70;99.90;;;;;;5054314;28;20188;-67
2022/12/06 10:36:36;;;;;;;0.00;0.00;;;4.70;99.90;;;;;;5037220;28;20221;-67
2022/12/06 10:39:11;;;;;;;0.05;0.05;;;4.70;99.90;;;;;;5054045;28;20212;-67
2022/12/06 10:41:42;;;;;;;0.05;0.03;;;4.80;99.90;;;;;;5054203;28;20182;-67
2022/12/06 10:44:33;;;;;;;0.00;0.00;;;4.80;99.90;;;;;;5053428;28;20700;-67
2022/12/06 10:47:11;;;;;;;0.38;0.38;;;4.80;99.90;;;;;;5054027;28;20194;-67
2022/12/06 10:49:49;;;;;;;0.00;0.00;;;4.80;99.90;;;;;;5054072;28;20196;-67
2022/12/06 10:52:26;;;;;;;0.00;0.00;;;4.80;99.90;;;;;;5053500;28;20457;-67
2022/12/06 10:55:01;;;;;;;0.20;0.20;;;4.70;99.90;;;;;;5053585;28;20752;-67
2022/12/06 10:57:30;;;;;;;0.00;0.00;;;4.70;99.90;;;;;;5052519;28;20189;-67
2022/12/06 11:00:00;;;;;;;0.32;0.15;;;4.70;99.90;;;;;;5053673;28;20185;-67
2022/12/06 11:02:30;;;;;;;0.00;0.00;;;4.70;99.90;;;;;;5052322;28;20178;-67
2022/12/06 11:05:00;;;;;;;0.00;0.00;;;4.70;99.90;;;;;;5052386;28;20177;-67
2022/12/06 11:07:35;;;;;;;0.00;0.00;;;4.70;99.90;;;;;;5053791;28;20174;-67
2022/12/06 11:10:13;;;;;;;0.03;0.03;;;4.70;99.90;;;;;;5052036;28;20176;-68
2022/12/06 11:12:39;;;;;;;0.05;0.05;;;4.70;99.90;;;;;;5038358;28;20181;-68
2022/12/06 11:15:16;;;;;;;0.00;0.00;;;4.70;99.90;;;;;;5053522;28;20213;-67
2022/12/06 11:17:47;;;;;;;0.00;0.00;;;4.70;99.90;;;;;;5053498;28;20181;-67
2022/12/06 11:20:26;;;;;;;0.05;0.05;;;4.70;99.90;;;;;;5053018;28;20185;-67
2022/12/06 11:23:10;;;;;;;0.00;0.00;;;4.80;99.90;;;;;;5052864;28;20208;-67
2022/12/06 11:25:59;;;;;;;0.00;0.00;;;4.80;99.90;;;;;;5052998;28;20182;-67
2022/12/06 11:28:39;;;;;;;0.00;0.00;;;4.80;99.90;;;;;;5053003;28;20197;-67
2022/12/06 11:31:25;;;;;;;0.00;0.00;;;4.80;99.90;;;;;;5053208;28;20632;-67
2022/12/06 11:33:51;;;;;;;0.00;0.00;;;4.80;99.90;;;;;;5052761;28;20177;-67
2022/12/06 11:36:18;;;;;;;0.08;0.08;;;4.90;99.90;;;;;;5052461;28;20213;-67
2022/12/06 11:38:44;;;;;;;0.00;0.00;;;4.90;99.90;;;;;;5053110;28;20173;-67
2022/12/06 11:41:17;;;;;;;0.00;0.00;;;4.90;99.90;;;;;;5053149;28;20269;-67
2022/12/06 11:43:44;;;;;;;0.00;0.00;;;4.90;99.90;;;;;;5052691;28;20205;-67
2022/12/06 11:46:12;;;;;;;0.00;0.00;;;4.90;99.90;;;;;;5051646;28;20272;-67
2022/12/06 11:48:38;;;;;;;0.10;0.10;;;4.80;99.90;;;;;;5052503;28;20233;-67
2022/12/06 11:51:14;;;;;;;0.00;0.00;;;4.80;99.90;;;;;;5051587;28;20633;-67
2022/12/06 11:53:52;;;;;;;0.00;0.00;;;4.90;99.90;;;;;;5052399;28;20535;-67
2022/12/06 11:56:32;;;;;;;0.00;0.00;;;4.90;99.90;;;;;;5045611;28;20218;-67
2022/12/06 11:59:20;;;;;;;0.00;0.00;;;4.90;99.90;;;;;;5038872;28;20584;-67
2022/12/06 12:01:49;;;;;;;0.20;0.20;;;4.80;99.90;;;;;;5052507;28;20675;-68
2022/12/06 12:04:35;;;;;;;0.00;0.00;;;4.80;99.90;;;;;;5052483;28;20192;-67
2022/12/06 12:07:21;;;;;;;0.25;0.25;;;4.90;99.90;;;;;;5039251;28;20185;-67
2022/12/06 12:09:57;;;;;;;0.00;0.00;;;5.00;99.90;;;;;;5052155;28;20195;-67
2022/12/06 12:13:42;;;;;;;0.25;0.25;;;5.10;99.90;;;;;;5051950;28;20207;-68
2022/12/06 12:15:17;;;;;;;0.00;0.00;;;5.10;99.90;;;;;;5052289;28;20252;-68
2022/12/06 12:17:46;;;;;;;0.00;0.00;;;5.10;99.90;;;;;;5052345;28;20252;-68
2022/12/06 12:20:21;;;;;;;0.00;0.00;;;5.20;99.90;;;;;;5052341;28;20194;-68
2022/12/06 12:22:56;;;;;;;0.13;0.13;;;5.20;99.90;;;;;;5038731;28;20201;-67
2022/12/06 12:25:23;;;;;;;0.20;0.20;;;5.20;99.90;;;;;;5041774;28;20180;-67
2022/12/06 12:27:54;;;;;;;0.00;0.00;;;5.30;99.90;;;;;;5051267;28;20217;-68
2022/12/06 12:30:38;;;;;;;0.00;0.00;;;5.30;99.90;;;;;;5052403;28;20180;-67
2022/12/06 12:33:06;;;;;;;0.00;0.00;;;5.20;99.90;;;;;;5052460;28;20179;-67
2022/12/06 12:35:38;;;;;;;0.17;0.17;;;5.20;99.90;;;;;;5052241;28;20265;-67
2022/12/06 12:38:11;;;;;;;0.00;0.00;;;5.10;99.90;;;;;;5052363;28;20261;-65
2022/12/06 12:40:46;;;;;;;0.00;0.00;;;5.10;99.90;;;;;;5052315;28;20235;-65
2022/12/06 12:43:11;;;;;;;0.00;0.00;;;5.10;99.90;;;;;;5052310;28;20196;-67
2022/12/06 12:45:39;;;;;;;0.03;0.03;;;5.00;99.90;;;;;;5052216;28;20213;-67
2022/12/06 12:48:23;;;;;;;0.60;0.40;;;5.10;99.90;;;;;;5052261;28;20243;-67
2022/12/06 12:50:57;;;;;;;0.22;0.08;;;5.10;99.90;;;;;;5052145;28;20636;-67
2022/12/06 12:53:40;;;;;;;0.00;0.00;;;5.10;99.90;;;;;;5052202;28;20177;-67
2022/12/06 12:56:20;;;;;;;0.15;0.15;;;5.10;99.90;;;;;;5046393;28;20219;-67
2022/12/06 12:58:48;;;;;;;0.15;0.15;;;5.20;99.90;;;;;;5032181;28;20180;-67
2022/12/06 13:01:23;;;;;;;0.00;0.00;;;5.20;99.90;;;;;;5051133;28;20180;-67
2022/12/06 13:03:53;;;;;;;0.00;0.00;;;5.30;99.90;;;;;;5060050;28;20176;-68
2022/12/06 13:06:39;;;;;;;0.00;0.00;;;5.30;99.90;;;;;;5052161;28;20192;-67
2022/12/06 13:09:06;;;;;;;0.00;0.00;;;5.30;99.90;;;;;;5051992;28;20542;-67
2022/12/06 13:11:45;;;;;;;0.00;0.00;;;5.30;99.90;;;;;;5051721;28;20586;-67
2022/12/06 13:14:18;;;;;;;0.10;0.10;;;5.30;99.90;;;;;;5051983;28;20176;-67
2022/12/06 13:16:45;;;;;;;0.00;0.00;;;5.30;99.90;;;;;;5050277;28;20643;-67
2022/12/06 13:19:15;;;;;;;0.17;0.17;;;5.30;99.90;;;;;;5050726;28;20173;-67
2022/12/06 13:21:43;;;;;;;0.00;0.00;;;5.40;99.90;;;;;;5049446;28;20178;-67
2022/12/06 13:24:11;;;;;;;0.00;0.00;;;5.40;99.90;;;;;;5053418;28;20275;-67
2022/12/06 13:26:45;;;;;;;0.00;0.00;;;5.40;99.90;;;;;;5053860;28;20197;-68
2022/12/06 13:29:23;;;;;;;0.00;0.00;;;5.50;99.90;;;;;;5054208;28;20186;-67
2022/12/06 13:31:52;;;;;;;0.00;0.00;;;5.50;99.90;;;;;;5055636;28;20281;-67
2022/12/06 13:34:31;;;;;;;0.00;0.00;;;5.50;99.90;;;;;;5055752;28;20185;-67
2022/12/06 13:36:57;;;;;;;0.00;0.00;;;5.50;99.90;;;;;;5038880;28;20196;-67
2022/12/06 13:39:32;;;;;;;0.45;0.40;;;5.50;99.90;;;;;;5055291;28;20667;-67
2022/12/06 13:42:18;;;;;;;0.00;0.00;;;5.50;99.90;;;;;;5055533;28;20181;-67